Time;durP1;ratioP1;P1;durP2;ratioP2;P2;SDS_P1;SDS_P2;PMS_P1;PMS_P2;Temp;Humidity;BMP_temperature;BMP_pressure;BME280_temperature;BME280_humidity;BME280_pressure;Samples;Min_cycle;Max_cycle;Signal;HPM_P1;HPM_P2
2023/10/11 00:01:44;;;;;;;;;;;;;;;-147.89;100.00;60788.38;4229669;28;20018;-65
2023/10/11 00:03:52;;;;;;;;;;;;;;;-147.89;100.00;60788.38;4229447;28;19931;-66
2023/10/11 00:05:54;;;;;;;;;;;;;;;-147.89;100.00;60788.38;4229627;28;20297;-66
2023/10/11 00:07:58;;;;;;;;;;;;;;;-147.89;100.00;60788.38;4229953;28;19984;-65
2023/10/11 00:09:59;;;;;;;;;;;;;;;-147.89;100.00;60788.38;4229638;28;19966;-65
2023/10/11 00:12:02;;;;;;;;;;;;;;;-147.89;100.00;60788.38;4229757;28;19981;-66
2023/10/11 00:14:04;;;;;;;;;;;;;;;-147.89;100.00;60788.38;4229424;28;20026;-66
2023/10/11 00:16:07;;;;;;;;;;;;;;;-147.89;100.00;60788.38;4229741;28;19924;-65
2023/10/11 00:18:10;;;;;;;;;;;;;;;-147.89;100.00;60788.38;4229513;28;20448;-65
2023/10/11 00:20:28;;;;;;;;;;;;;;;-147.89;100.00;60788.38;4229422;28;19943;-66
2023/10/11 00:22:32;;;;;;;;;;;;;;;-147.89;100.00;60788.38;4230447;28;19981;-65
2023/10/11 00:24:34;;;;;;;;;;;;;;;-147.89;100.00;60788.38;4232274;28;19924;-65
2023/10/11 00:26:40;;;;;;;;;;;;;;;-147.89;100.00;60788.38;4232682;28;19976;-66
2023/10/11 00:28:43;;;;;;;;;;;;;;;-147.89;100.00;60788.38;4232825;28;19928;-65
2023/10/11 00:30:46;;;;;;;;;;;;;;;-147.89;100.00;60788.38;4232327;28;20335;-65
2023/10/11 00:32:48;;;;;;;;;;;;;;;-147.89;100.00;60788.38;4232782;28;19969;-68
2023/10/11 00:34:49;;;;;;;;;;;;;;;-147.89;100.00;60788.38;4231839;28;19927;-65
2023/10/11 00:36:51;;;;;;;;;;;;;;;-147.89;100.00;60788.38;4232386;28;19934;-65
2023/10/11 00:38:53;;;;;;;;;;;;;;;-147.89;100.00;60788.38;4232626;28;19924;-65
2023/10/11 00:41:06;;;;;;;;;;;;;;;-147.89;100.00;60788.38;4232282;28;19959;-65
2023/10/11 00:43:10;;;;;;;;;;;;;;;-147.89;100.00;60788.38;4232408;28;19974;-66
2023/10/11 00:45:16;;;;;;;;;;;;;;;-147.89;100.00;60788.38;4232167;28;19928;-66
2023/10/11 00:47:19;;;;;;;;;;;;;;;-147.89;100.00;60788.38;4221336;28;19943;-65
2023/10/11 00:49:21;;;;;;;;;;;;;;;-147.89;100.00;60788.38;4232101;28;20018;-65
2023/10/11 00:51:29;;;;;;;;;;;;;;;-147.89;100.00;60788.38;4231937;28;19924;-66
2023/10/11 00:53:34;;;;;;;;;;;;;;;-147.89;100.00;60788.38;4232273;28;19984;-66
2023/10/11 00:55:36;;;;;;;;;;;;;;;-147.89;100.00;60788.38;4231859;28;19924;-66
2023/10/11 00:57:37;;;;;;;;;;;;;;;-147.89;100.00;60788.38;4232117;28;19985;-65
2023/10/11 00:59:39;;;;;;;;;;;;;;;-147.89;100.00;60788.38;4232258;28;20313;-65
2023/10/11 01:01:44;;;;;;;;;;;;;;;-147.89;100.00;60788.38;4232010;28;19947;-66
2023/10/11 01:03:46;;;;;;;;;;;;;;;-147.89;100.00;60788.38;4231889;28;19989;-65
2023/10/11 01:05:49;;;;;;;;;;;;;;;-147.89;100.00;60788.38;4231753;28;19930;-65
2023/10/11 01:07:50;;;;;;;;;;;;;;;-147.89;100.00;60788.38;4231827;28;20010;-65
2023/10/11 01:09:52;;;;;;;;;;;;;;;-147.89;100.00;60788.38;4231864;28;19928;-65
2023/10/11 01:11:53;;;;;;;;;;;;;;;-147.89;100.00;60788.38;4231735;28;19958;-65
2023/10/11 01:13:55;;;;;;;;;;;;;;;-147.89;100.00;60788.38;4232114;28;20010;-65
2023/10/11 01:15:56;;;;;;;;;;;;;;;-147.89;100.00;60788.38;4231767;28;20380;-65
2023/10/11 01:18:03;;;;;;;;;;;;;;;-147.89;100.00;60788.38;4231488;28;20048;-66
2023/10/11 01:20:14;;;;;;;;;;;;;;;-147.89;100.00;60788.38;4232099;28;20031;-65
2023/10/11 01:22:16;;;;;;;;;;;;;;;-147.89;100.00;60788.38;4231578;28;19924;-66
2023/10/11 01:24:17;;;;;;;;;;;;;;;-147.89;100.00;60788.38;4231582;28;19924;-66
2023/10/11 01:26:19;;;;;;;;;;;;;;;-147.89;100.00;60788.38;4231586;28;20026;-66
2023/10/11 01:28:20;;;;;;;;;;;;;;;-147.89;100.00;60788.38;4231603;28;19927;-66
2023/10/11 01:30:27;;;;;;;;;;;;;;;-147.89;100.00;60788.38;4231665;28;19924;-66
2023/10/11 01:32:29;;;;;;;;;;;;;;;-147.89;100.00;60788.38;4231233;28;20415;-66
2023/10/11 01:34:32;;;;;;;;;;;;;;;-147.89;100.00;60788.38;4230714;28;19923;-66
2023/10/11 01:36:34;;;;;;;;;;;;;;;-147.89;100.00;60788.38;4231325;28;19949;-66
2023/10/11 01:38:46;;;;;;;;;;;;;;;-147.89;100.00;60788.38;4233247;27;20393;-65
2023/10/11 01:40:54;;;;;;;;;;;;;;;-147.89;100.00;60788.38;4231482;28;19924;-66
2023/10/11 01:42:56;;;;;;;;;;;;;;;-147.89;100.00;60788.38;4231158;28;19969;-65
2023/10/11 01:44:57;;;;;;;;;;;;;;;-147.89;100.00;60788.38;4231313;28;20003;-66
2023/10/11 01:47:01;;;;;;;;;;;;;;;-147.89;100.00;60788.38;4231127;28;19931;-66
2023/10/11 01:49:10;;;;;;;;;;;;;;;-147.89;100.00;60788.38;4231459;28;19996;-66
2023/10/11 01:51:15;;;;;;;;;;;;;;;-147.89;100.00;60788.38;4231193;28;19928;-66
2023/10/11 01:53:18;;;;;;;;;;;;;;;-147.89;100.00;60788.38;4231287;28;20296;-66
2023/10/11 01:55:19;;;;;;;;;;;;;;;-147.89;100.00;60788.38;4231298;28;19928;-65
2023/10/11 01:57:25;;;;;;;;;;;;;;;-147.89;100.00;60788.38;4230843;28;20006;-66
2023/10/11 01:59:26;;;;;;;;;;;;;;;-147.89;100.00;60788.38;4231230;28;20309;-65
2023/10/11 02:01:30;;;;;;;;;;;;;;;-147.89;100.00;60788.38;4230905;28;19939;-66
2023/10/11 02:03:32;;;;;;;;;;;;;;;-147.89;100.00;60788.38;4212654;28;19964;-66
2023/10/11 02:05:34;;;;;;;;;;;;;;;-147.89;100.00;60788.38;4239072;27;19923;-65
2023/10/11 02:07:35;;;;;;;;;;;;;;;-147.89;100.00;60788.38;4227488;28;20312;-66
2023/10/11 02:09:37;;;;;;;;;;;;;;;-147.89;100.00;60788.38;4230988;28;19977;-65
2023/10/11 02:11:41;;;;;;;;;;;;;;;-147.89;100.00;60788.38;4230963;28;19977;-66
2023/10/11 02:13:43;;;;;;;;;;;;;;;-147.89;100.00;60788.38;4230815;28;19927;-66
2023/10/11 02:15:50;;;;;;;;;;;;;;;-147.89;100.00;60788.38;4230607;28;20328;-66
2023/10/11 02:17:52;;;;;;;;;;;;;;;-147.89;100.00;60788.38;4230830;28;19928;-65
2023/10/11 02:19:53;;;;;;;;;;;;;;;-147.89;100.00;60788.38;4230920;28;19931;-66
2023/10/11 02:21:55;;;;;;;;;;;;;;;-147.89;100.00;60788.38;4212674;28;19924;-66
2023/10/11 02:23:58;;;;;;;;;;;;;;;-147.89;100.00;60788.38;4230453;28;19930;-65
2023/10/11 02:26:01;;;;;;;;;;;;;;;-147.89;100.00;60788.38;4212671;28;19924;-66
2023/10/11 02:28:09;;;;;;;;;;;;;;;-147.89;100.00;60788.38;4230491;28;19924;-66
2023/10/11 02:30:21;;;;;;;;;;;;;;;-147.89;100.00;60788.38;4226653;28;19963;-66
2023/10/11 02:32:26;;;;;;;;;;;;;;;-147.89;100.00;60788.38;4230818;28;19938;-66
2023/10/11 02:34:27;;;;;;;;;;;;;;;-147.89;100.00;60788.38;4230397;28;20308;-65
2023/10/11 02:36:34;;;;;;;;;;;;;;;-147.89;100.00;60788.38;4230597;28;19924;-66
2023/10/11 02:38:41;;;;;;;;;;;;;;;-147.89;100.00;60788.38;4230156;28;19974;-66
2023/10/11 02:40:46;;;;;;;;;;;;;;;-147.89;100.00;60788.38;4230295;28;19924;-66
2023/10/11 02:42:48;;;;;;;;;;;;;;;-147.89;100.00;60788.38;4230292;28;20018;-66
2023/10/11 02:44:50;;;;;;;;;;;;;;;-147.89;100.00;60788.38;4230032;28;19928;-66
2023/10/11 02:46:52;;;;;;;;;;;;;;;-147.89;100.00;60788.38;4230368;28;19924;-66
2023/10/11 02:49:05;;;;;;;;;;;;;;;-147.89;100.00;60788.38;4230109;28;20317;-66
2023/10/11 02:51:13;;;;;;;;;;;;;;;-147.89;100.00;60788.38;4228155;28;20346;-65
2023/10/11 02:53:21;;;;;;;;;;;;;;;-147.89;100.00;60788.38;4230157;28;19930;-66
2023/10/11 02:55:23;;;;;;;;;;;;;;;-147.89;100.00;60788.38;4230057;28;20371;-65
2023/10/11 02:57:25;;;;;;;;;;;;;;;-147.89;100.00;60788.38;4230516;28;20389;-66
2023/10/11 02:59:26;;;;;;;;;;;;;;;-147.89;100.00;60788.38;4230002;28;20007;-66
2023/10/11 03:01:31;;;;;;;;;;;;;;;-147.89;100.00;60788.38;4230297;28;20389;-65
2023/10/11 03:03:38;;;;;;;;;;;;;;;-147.89;100.00;60788.38;4230216;28;19944;-66
2023/10/11 03:05:40;;;;;;;;;;;;;;;-147.89;100.00;60788.38;4232548;27;19931;-66
2023/10/11 03:07:42;;;;;;;;;;;;;;;-147.89;100.00;60788.38;4212348;28;19954;-66
2023/10/11 03:09:44;;;;;;;;;;;;;;;-147.89;100.00;60788.38;4230140;28;19943;-66
2023/10/11 03:11:45;;;;;;;;;;;;;;;-147.89;100.00;60788.38;4230247;28;19977;-66
2023/10/11 03:13:47;;;;;;;;;;;;;;;-147.89;100.00;60788.38;4229995;28;19934;-66
2023/10/11 03:15:55;;;;;;;;;;;;;;;-147.89;100.00;60788.38;4230195;28;20399;-65
2023/10/11 03:17:56;;;;;;;;;;;;;;;-147.89;100.00;60788.38;4229976;28;19924;-65
2023/10/11 03:19:58;;;;;;;;;;;;;;;-147.89;100.00;60788.38;4230257;28;19927;-65
2023/10/11 03:22:02;;;;;;;;;;;;;;;-147.89;100.00;60788.38;4230139;28;19970;-65
2023/10/11 03:24:04;;;;;;;;;;;;;;;-147.89;100.00;60788.38;4229866;28;19968;-66
2023/10/11 03:26:08;;;;;;;;;;;;;;;-147.89;100.00;60788.38;4229989;28;20393;-66
2023/10/11 03:28:14;;;;;;;;;;;;;;;-147.89;100.00;60788.38;4229611;28;20332;-66
2023/10/11 03:30:16;;;;;;;;;;;;;;;-147.89;100.00;60788.38;4230087;28;19959;-66
2023/10/11 03:32:19;;;;;;;;;;;;;;;-147.89;100.00;60788.38;4230076;28;19981;-66
2023/10/11 03:34:20;;;;;;;;;;;;;;;-147.89;100.00;60788.38;4229960;28;19973;-66
2023/10/11 03:36:28;;;;;;;;;;;;;;;-147.89;100.00;60788.38;4229981;28;20030;-66
2023/10/11 03:38:33;;;;;;;;;;;;;;;-147.89;100.00;60788.38;4230001;28;20430;-66
2023/10/11 03:40:34;;;;;;;;;;;;;;;-147.89;100.00;60788.38;4211715;28;19958;-66
2023/10/11 03:42:59;;;;;;;;;;;;;;;-147.89;100.00;60788.38;4229572;28;19930;-66
2023/10/11 03:45:01;;;;;;;;;;;;;;;-147.89;100.00;60788.38;4230164;28;19924;-66
2023/10/11 03:47:06;;;;;;;;;;;;;;;-147.89;100.00;60788.38;4229874;28;20432;-66
2023/10/11 03:51:35;;;;;;;;;;;;;;;-147.89;100.00;60788.38;4177480;28;20004;-65
2023/10/11 03:53:39;;;;;;;;;;;;;;;-147.89;100.00;60788.38;4167834;28;19928;-66
2023/10/11 03:55:47;;;;;;;;;;;;;;;-147.89;100.00;60788.38;4177759;28;19925;-66
2023/10/11 03:57:50;;;;;;;;;;;;;;;-147.89;100.00;60788.38;4178552;28;20039;-65
2023/10/11 03:59:53;;;;;;;;;;;;;;;-147.89;100.00;60788.38;4180887;28;19948;-65
2023/10/11 04:02:01;;;;;;;;;;;;;;;-147.89;100.00;60788.38;4180758;28;19928;-66
2023/10/11 04:04:05;;;;;;;;;;;;;;;-147.89;100.00;60788.38;4171911;28;19925;-65
2023/10/11 04:06:13;;;;;;;;;;;;;;;-147.89;100.00;60788.38;4180700;28;20376;-65
2023/10/11 04:08:24;;;;;;;;;;;;;;;-147.89;100.00;60788.38;4180498;28;20457;-66
2023/10/11 04:10:38;;;;;;;;;;;;;;;-147.89;100.00;60788.38;4180772;28;19925;-65
2023/10/11 04:12:42;;;;;;;;;;;;;;;-147.89;100.00;60788.38;4180319;28;19925;-67
2023/10/11 04:14:44;;;;;;;;;;;;;;;-147.89;100.00;60788.38;4180646;28;20071;-66
2023/10/11 04:16:46;;;;;;;;;;;;;;;-147.89;100.00;60788.38;4180565;28;19925;-67
2023/10/11 04:18:52;;;;;;;;;;;;;;;-147.89;100.00;60788.38;4180545;28;19931;-67
2023/10/11 04:21:14;;;;;;;;;;;;;;;-147.89;100.00;60788.38;4180532;28;19929;-67
2023/10/11 04:23:16;;;;;;;;;;;;;;;-147.89;100.00;60788.38;4180134;28;19925;-66
2023/10/11 04:25:22;;;;;;;;;;;;;;;-147.89;100.00;60788.38;4180498;28;20346;-67
2023/10/11 04:29:31;;;;;;;;;;;;;;;-147.89;100.00;60788.38;4225715;28;20419;-66
2023/10/11 04:31:54;;;;;;;;;;;;;;;-147.89;100.00;60788.38;4232938;28;19927;-67
2023/10/11 04:33:55;;;;;;;;;;;;;;;-147.89;100.00;60788.38;4232472;28;20392;-67
2023/10/11 04:36:02;;;;;;;;;;;;;;;-147.89;100.00;60788.38;4214572;28;19930;-66
2023/10/11 04:38:04;;;;;;;;;;;;;;;-147.89;100.00;60788.38;4237443;27;19969;-66
2023/10/11 04:40:23;;;;;;;;;;;;;;;-147.89;100.00;60788.38;4232361;28;20397;-67
2023/10/11 04:42:28;;;;;;;;;;;;;;;-147.89;100.00;60788.38;4232203;28;19923;-67
2023/10/11 04:44:42;;;;;;;;;;;;;;;-147.89;100.00;60788.38;4231993;28;20011;-67
2023/10/11 04:46:55;;;;;;;;;;;;;;;-147.89;100.00;60788.38;4215550;28;19964;-67
2023/10/11 04:49:17;;;;;;;;;;;;;;;-147.89;100.00;60788.38;4225922;28;19932;-66
2023/10/11 04:51:21;;;;;;;;;;;;;;;-147.89;100.00;60788.38;4232218;28;20339;-66
2023/10/11 04:53:32;;;;;;;;;;;;;;;-147.89;100.00;60788.38;4232053;28;19932;-65
2023/10/11 04:55:35;;;;;;;;;;;;;;;-147.89;100.00;60788.38;4221199;28;19963;-66
2023/10/11 04:57:48;;;;;;;;;;;;;;;-147.89;100.00;60788.38;4232605;28;20014;-67
2023/10/11 04:59:59;;;;;;;;;;;;;;;-147.89;100.00;60788.38;4231998;28;19928;-66
2023/10/11 05:02:24;;;;;;;;;;;;;;;-147.89;100.00;60788.38;4232296;28;19930;-66
2023/10/11 05:04:33;;;;;;;;;;;;;;;-147.89;100.00;60788.38;4232090;28;19923;-66
2023/10/11 05:06:41;;;;;;;;;;;;;;;-147.89;100.00;60788.38;4237073;27;20006;-66
2023/10/11 05:08:51;;;;;;;;;;;;;;;-147.89;100.00;60788.38;4231934;28;20297;-65
2023/10/11 05:10:55;;;;;;;;;;;;;;;-147.89;100.00;60788.38;4231640;28;19935;-67
2023/10/11 05:13:08;;;;;;;;;;;;;;;-147.89;100.00;60788.38;4231974;28;19934;-66
2023/10/11 05:15:10;;;;;;;;;;;;;;;-147.89;100.00;60788.38;4231857;28;19971;-65
2023/10/11 05:19:20;;;;;;;;;;;;;;;-147.89;100.00;60788.38;4231678;28;19958;-66
2023/10/11 05:21:26;;;;;;;;;;;;;;;-147.89;100.00;60788.38;4231784;28;19953;-66
2023/10/11 05:25:58;;;;;;;;;;;;;;;-147.89;100.00;60788.38;4231457;28;19927;-66
2023/10/11 05:32:32;;;;;;;;;;;;;;;-147.89;100.00;60788.38;4231531;28;19924;-66
2023/10/11 05:34:50;;;;;;;;;;;;;;;-147.89;100.00;60788.38;4231239;28;19940;-66
2023/10/11 05:50:50;;;;;;;;;;;;;;;-147.89;100.00;60788.38;4231219;28;19938;-68
2023/10/11 05:51:14;;;;;;;;;;;;;;;-147.89;100.00;60788.38;4170667;28;19929;-66
2023/10/11 05:53:16;;;;;;;;;;;;;;;-147.89;100.00;60788.38;4174938;28;19925;-66
2023/10/11 05:55:17;;;;;;;;;;;;;;;-147.89;100.00;60788.38;4177688;28;19925;-65
2023/10/11 05:57:23;;;;;;;;;;;;;;;-147.89;100.00;60788.38;4167764;28;20613;-66
2023/10/11 05:59:25;;;;;;;;;;;;;;;-147.89;100.00;60788.38;4179219;28;19964;-67
2023/10/11 06:01:26;;;;;;;;;;;;;;;-147.89;100.00;60788.38;4171697;28;20465;-67
2023/10/11 06:03:28;;;;;;;;;;;;;;;-147.89;100.00;60788.38;4173818;28;19964;-66
2023/10/11 06:05:39;;;;;;;;;;;;;;;-147.89;100.00;60788.38;4172645;28;19929;-67
2023/10/11 06:07:41;;;;;;;;;;;;;;;-147.89;100.00;60788.38;4173191;28;19925;-66
2023/10/11 06:09:43;;;;;;;;;;;;;;;-147.89;100.00;60788.38;4162529;28;20399;-66
2023/10/11 06:11:48;;;;;;;;;;;;;;;-147.89;100.00;60788.38;4168998;28;19975;-67
2023/10/11 06:13:52;;;;;;;;;;;;;;;-147.89;100.00;60788.38;4167226;28;19929;-65
2023/10/11 06:15:59;;;;;;;;;;;;;;;-147.89;100.00;60788.38;4163598;28;19925;-67
2023/10/11 06:18:02;;;;;;;;;;;;;;;-147.89;100.00;60788.38;4167404;28;19979;-66
2023/10/11 06:21:01;;;;;;;;;;;;;;;-147.89;100.00;60788.38;4181200;28;20358;-65
2023/10/11 06:22:29;;;;;;;;;;;;;;;-147.89;100.00;60788.38;4222210;28;20438;-66
2023/10/11 06:24:36;;;;;;;;;;;;;;;-147.89;100.00;60788.38;4230640;28;19924;-67
2023/10/11 06:28:40;;;;;;;;;;;;;;;-147.89;100.00;60788.38;4230660;28;19923;-66
2023/10/11 06:30:51;;;;;;;;;;;;;;;-147.89;100.00;60788.38;4230606;28;19930;-67
2023/10/11 06:32:57;;;;;;;;;;;;;;;-147.89;100.00;60788.38;4230821;28;19931;-66
2023/10/11 06:35:05;;;;;;;;;;;;;;;-147.89;100.00;60788.38;4230637;28;19959;-66
2023/10/11 06:37:07;;;;;;;;;;;;;;;-147.89;100.00;60788.38;4229934;28;19935;-66
2023/10/11 06:39:33;;;;;;;;;;;;;;;-147.89;100.00;60788.38;4230521;28;19923;-66
2023/10/11 06:41:46;;;;;;;;;;;;;;;-147.89;100.00;60788.38;4230246;28;20313;-67
2023/10/11 06:43:47;;;;;;;;;;;;;;;-147.89;100.00;60788.38;4227186;28;19927;-67
2023/10/11 06:45:54;;;;;;;;;;;;;;;-147.89;100.00;60788.38;4230265;28;19923;-67
2023/10/11 06:48:06;;;;;;;;;;;;;;;-147.89;100.00;60788.38;4230265;28;19930;-67
2023/10/11 06:50:11;;;;;;;;;;;;;;;-147.89;100.00;60788.38;4230176;28;20312;-66
2023/10/11 06:52:25;;;;;;;;;;;;;;;-147.89;100.00;60788.38;4229937;28;19943;-67
2023/10/11 06:54:32;;;;;;;;;;;;;;;-147.89;100.00;60788.38;4230126;28;20319;-67
2023/10/11 06:56:35;;;;;;;;;;;;;;;-147.89;100.00;60788.38;4230368;28;19930;-66
2023/10/11 06:58:44;;;;;;;;;;;;;;;-147.89;100.00;60788.38;4230034;28;19923;-67
2023/10/11 07:00:46;;;;;;;;;;;;;;;-147.89;100.00;60788.38;4229989;28;19930;-67
2023/10/11 07:02:48;;;;;;;;;;;;;;;-147.89;100.00;60788.38;4230164;28;19932;-67
2023/10/11 07:04:52;;;;;;;;;;;;;;;-147.89;100.00;60788.38;4219024;28;20281;-67
2023/10/11 07:06:54;;;;;;;;;;;;;;;-147.89;100.00;60788.38;4230117;28;19992;-67
2023/10/11 07:08:58;;;;;;;;;;;;;;;-147.89;100.00;60788.38;4229748;28;19924;-67
2023/10/11 07:13:13;;;;;;;;;;;;;;;-147.89;100.00;60788.38;4230094;28;19928;-66
2023/10/11 07:15:14;;;;;;;;;;;;;;;-147.89;100.00;60788.38;4230170;28;20013;-68
2023/10/11 07:17:21;;;;;;;;;;;;;;;-147.89;100.00;60788.38;4229997;28;19924;-67
2023/10/11 07:19:23;;;;;;;;;;;;;;;-147.89;100.00;60788.38;4230033;28;20307;-67
2023/10/11 07:21:48;;;;;;;;;;;;;;;-147.89;100.00;60788.38;4229629;28;20330;-68
2023/10/11 07:26:56;;;;;;;;;;;;;;;-147.89;100.00;60788.38;4230018;28;19934;-67
2023/10/11 07:28:35;;;;;;;;;;;;;;;-147.89;100.00;60788.38;4216443;28;19931;-67
2023/10/11 07:30:37;;;;;;;;;;;;;;;-147.89;100.00;60788.38;4230048;28;19924;-68
2023/10/11 07:32:39;;;;;;;;;;;;;;;-147.89;100.00;60788.38;4231344;28;20339;-68
2023/10/11 07:34:41;;;;;;;;;;;;;;;-147.89;100.00;60788.38;4214974;28;19954;-66
2023/10/11 07:36:42;;;;;;;;;;;;;;;-147.89;100.00;60788.38;4233604;28;19970;-67
2023/10/11 07:38:45;;;;;;;;;;;;;;;-147.89;100.00;60788.38;4233339;28;19977;-68
2023/10/11 07:40:52;;;;;;;;;;;;;;;-147.89;100.00;60788.38;4233283;28;19947;-67
2023/10/11 07:42:55;;;;;;;;;;;;;;;-147.89;100.00;60788.38;4233414;28;19924;-67
2023/10/11 07:45:00;;;;;;;;;;;;;;;-147.89;100.00;60788.38;4232943;28;19970;-67
2023/10/11 07:47:15;;;;;;;;;;;;;;;-147.89;100.00;60788.38;4233285;28;19968;-68
2023/10/11 07:49:23;;;;;;;;;;;;;;;-147.89;100.00;60788.38;4232706;28;19923;-67
2023/10/11 07:51:25;;;;;;;;;;;;;;;-147.89;100.00;60788.38;4221640;28;20385;-66
2023/10/11 07:53:27;;;;;;;;;;;;;;;-147.89;100.00;60788.38;4233170;28;19930;-67
2023/10/11 07:55:28;;;;;;;;;;;;;;;-147.89;100.00;60788.38;4232427;28;19928;-67
2023/10/11 07:57:30;;;;;;;;;;;;;;;-147.89;100.00;60788.38;4233055;28;19947;-67
2023/10/11 07:59:32;;;;;;;;;;;;;;;-147.89;100.00;60788.38;4233361;28;20388;-68
2023/10/11 08:01:42;;;;;;;;;;;;;;;-147.89;100.00;60788.38;4232775;28;19924;-69
2023/10/11 08:03:44;;;;;;;;;;;;;;;-147.89;100.00;60788.38;4232577;28;19924;-68
2023/10/11 08:05:46;;;;;;;;;;;;;;;-147.89;100.00;60788.38;4232899;28;19971;-67
2023/10/11 08:07:47;;;;;;;;;;;;;;;-147.89;100.00;60788.38;4232729;28;19985;-71
2023/10/11 08:09:52;;;;;;;;;;;;;;;-147.89;100.00;60788.38;4232508;28;20411;-70
2023/10/11 08:11:57;;;;;;;;;;;;;;;-147.89;100.00;60788.38;4230934;28;20027;-71
2023/10/11 08:14:02;;;;;;;;;;;;;;;-147.89;100.00;60788.38;4229444;28;19928;-70
2023/10/11 08:16:05;;;;;;;;;;;;;;;-147.89;100.00;60788.38;4231599;28;19930;-68
2023/10/11 08:18:07;;;;;;;;;;;;;;;-147.89;100.00;60788.38;4213933;28;20003;-68
2023/10/11 08:20:15;;;;;;;;;;;;;;;-147.89;100.00;60788.38;4231380;28;19963;-68
2023/10/11 08:22:17;;;;;;;;;;;;;;;-147.89;100.00;60788.38;4231940;28;20337;-69
2023/10/11 08:24:24;;;;;;;;;;;;;;;-147.89;100.00;60788.38;4231600;28;19990;-68
2023/10/11 08:26:32;;;;;;;;;;;;;;;-147.89;100.00;60788.38;4231922;28;19923;-68
2023/10/11 08:28:46;;;;;;;;;;;;;;;-147.89;100.00;60788.38;4231777;28;19934;-67
2023/10/11 08:30:48;;;;;;;;;;;;;;;-147.89;100.00;60788.38;4229871;28;19924;-62
2023/10/11 08:32:51;;;;;;;;;;;;;;;-147.89;100.00;60788.38;4231014;28;19931;-64
2023/10/11 08:34:54;;;;;;;;;;;;;;;-147.89;100.00;60788.38;4232429;28;19923;-64
2023/10/11 08:36:56;;;;;;;;;;;;;;;-147.89;100.00;60788.38;4233722;27;19966;-64
2023/10/11 08:39:02;;;;;;;;;;;;;;;-147.89;100.00;60788.38;4232746;27;19946;-67
2023/10/11 08:41:06;;;;;;;;;;;;;;;-147.89;100.00;60788.38;4231231;28;20296;-65
2023/10/11 08:43:09;;;;;;;;;;;;;;;-147.89;100.00;60788.38;4200495;28;19934;-68
2023/10/11 08:45:14;;;;;;;;;;;;;;;-147.89;100.00;60788.38;4231105;28;19950;-66
2023/10/11 08:47:19;;;;;;;;;;;;;;;-147.89;100.00;60788.38;4230681;28;19927;-70
2023/10/11 08:49:22;;;;;;;;;;;;;;;-147.89;100.00;60788.38;4231098;28;19979;-66
2023/10/11 08:51:24;;;;;;;;;;;;;;;-147.89;100.00;60788.38;4231532;28;19959;-63
2023/10/11 08:53:31;;;;;;;;;;;;;;;-147.89;100.00;60788.38;4226648;28;20363;-64
2023/10/11 08:55:35;;;;;;;;;;;;;;;-147.89;100.00;60788.38;4230440;28;19923;-64
2023/10/11 08:57:37;;;;;;;;;;;;;;;-147.89;100.00;60788.38;4230606;28;19981;-65
2023/10/11 08:59:48;;;;;;;;;;;;;;;-147.89;100.00;60788.38;4231362;28;19923;-63
2023/10/11 09:01:53;;;;;;;;;;;;;;;-147.89;100.00;60788.38;4230768;28;19938;-64
2023/10/11 09:04:11;;;;;;;;;;;;;;;-147.89;100.00;60788.38;4229834;28;20321;-63
2023/10/11 09:06:19;;;;;;;;;;;;;;;-147.89;100.00;60788.38;4245089;27;19924;-64
2023/10/11 09:08:32;;;;;;;;;;;;;;;-147.89;100.00;60788.38;4231159;28;19928;-63
2023/10/11 09:10:34;;;;;;;;;;;;;;;-147.89;100.00;60788.38;4230150;28;19924;-62
2023/10/11 09:12:48;;;;;;;;;;;;;;;-147.89;100.00;60788.38;4230848;28;19977;-63
2023/10/11 09:14:54;;;;;;;;;;;;;;;-147.89;100.00;60788.38;4231011;28;19923;-60
2023/10/11 09:17:02;;;;;;;;;;;;;;;-147.89;100.00;60788.38;4230651;28;20327;-61
2023/10/11 09:19:10;;;;;;;;;;;;;;;-147.89;100.00;60788.38;4230883;28;19924;-63
2023/10/11 09:21:15;;;;;;;;;;;;;;;-147.89;100.00;60788.38;4230841;28;19927;-62
2023/10/11 09:23:26;;;;;;;;;;;;;;;-147.89;100.00;60788.38;4230281;28;20014;-62
2023/10/11 09:25:33;;;;;;;;;;;;;;;-147.89;100.00;60788.38;4230457;28;20330;-61
2023/10/11 09:27:48;;;;;;;;;;;;;;;-147.89;100.00;60788.38;4230929;28;20425;-62
2023/10/11 09:29:51;;;;;;;;;;;;;;;-147.89;100.00;60788.38;4220983;28;20511;-63
2023/10/11 09:31:58;;;;;;;;;;;;;;;-147.89;100.00;60788.38;4211925;28;19928;-61
2023/10/11 09:34:04;;;;;;;;;;;;;;;-147.89;100.00;60788.38;4230590;28;19956;-61
2023/10/11 09:36:06;;;;;;;;;;;;;;;-147.89;100.00;60788.38;4230720;28;19923;-62
2023/10/11 09:38:09;;;;;;;;;;;;;;;-147.89;100.00;60788.38;4235395;27;19972;-60
2023/10/11 09:40:16;;;;;;;;;;;;;;;-147.89;100.00;60788.38;4230411;28;20030;-61
2023/10/11 09:42:22;;;;;;;;;;;;;;;-147.89;100.00;60788.38;4230569;28;19923;-62
2023/10/11 09:44:28;;;;;;;;;;;;;;;-147.89;100.00;60788.38;4230096;28;20384;-65
2023/10/11 09:46:32;;;;;;;;;;;;;;;-147.89;100.00;60788.38;4230141;28;19984;-64
2023/10/11 09:48:36;;;;;;;;;;;;;;;-147.89;100.00;60788.38;4230306;28;19959;-63
2023/10/11 09:50:41;;;;;;;;;;;;;;;-147.89;100.00;60788.38;4230218;28;19924;-65
2023/10/11 09:52:47;;;;;;;;;;;;;;;-147.89;100.00;60788.38;4230651;28;19977;-63
2023/10/11 09:54:50;;;;;;;;;;;;;;;-147.89;100.00;60788.38;4229740;28;20361;-63
2023/10/11 09:57:08;;;;;;;;;;;;;;;-147.89;100.00;60788.38;4213495;28;19924;-62
2023/10/11 09:59:28;;;;;;;;;;;;;;;-147.89;100.00;60788.38;4223189;28;19928;-62
2023/10/11 10:01:38;;;;;;;;;;;;;;;-147.89;100.00;60788.38;4230176;28;19928;-64
2023/10/11 10:03:47;;;;;;;;;;;;;;;-147.89;100.00;60788.38;4230209;28;19924;-62
2023/10/11 10:06:05;;;;;;;;;;;;;;;-147.89;100.00;60788.38;4219781;28;20019;-63
2023/10/11 10:08:14;;;;;;;;;;;;;;;-147.89;100.00;60788.38;4213132;28;19927;-62
2023/10/11 10:10:24;;;;;;;;;;;;;;;-147.89;100.00;60788.38;4229403;28;19924;-63
2023/10/11 10:12:31;;;;;;;;;;;;;;;-147.89;100.00;60788.38;4213256;28;19924;-66
2023/10/11 10:14:35;;;;;;;;;;;;;;;-147.89;100.00;60788.38;4221446;28;19977;-65
2023/10/11 10:17:00;;;;;;;;;;;;;;;-147.89;100.00;60788.38;4230274;28;19930;-65
2023/10/11 10:19:39;;;;;;;;;;;;;;;-147.89;100.00;60788.38;4221693;28;20258;-65
2023/10/11 10:22:00;;;;;;;;;;;;;;;-147.89;100.00;60788.38;4211009;28;20594;-66
2023/10/11 10:24:21;;;;;;;;;;;;;;;-147.89;100.00;60788.38;4229777;28;19924;-63
2023/10/11 10:26:26;;;;;;;;;;;;;;;-147.89;100.00;60788.38;4228338;28;19928;-64
2023/10/11 10:28:36;;;;;;;;;;;;;;;-147.89;100.00;60788.38;4230024;28;20339;-66
2023/10/11 10:30:57;;;;;;;;;;;;;;;-147.89;100.00;60788.38;4234200;27;19990;-64
2023/10/11 10:33:18;;;;;;;;;;;;;;;-147.89;100.00;60788.38;4227031;27;20040;-65
2023/10/11 10:35:20;;;;;;;;;;;;;;;-147.89;100.00;60788.38;4228943;27;19930;-64
2023/10/11 10:37:42;;;;;;;;;;;;;;;-147.89;100.00;60788.38;4228392;27;20057;-64
2023/10/11 10:40:07;;;;;;;;;;;;;;;-147.89;100.00;60788.38;4202636;28;20290;-64
2023/10/11 10:42:12;;;;;;;;;;;;;;;-147.89;100.00;60788.38;4232639;27;19940;-64
2023/10/11 10:44:18;;;;;;;;;;;;;;;-147.89;100.00;60788.38;4246720;27;20338;-63
2023/10/11 10:46:20;;;;;;;;;;;;;;;-147.89;100.00;60788.38;4231951;27;20278;-61
2023/10/11 10:48:39;;;;;;;;;;;;;;;-147.89;100.00;60788.38;4230608;28;20725;-62
2023/10/11 10:50:47;;;;;;;;;;;;;;;-147.89;100.00;60788.38;4230118;28;19992;-69
2023/10/11 10:52:50;;;;;;;;;;;;;;;-147.89;100.00;60788.38;4230250;28;19967;-68
2023/10/11 10:55:04;;;;;;;;;;;;;;;-147.89;100.00;60788.38;4195757;28;20011;-68
2023/10/11 10:57:06;;;;;;;;;;;;;;;-147.89;100.00;60788.38;4228830;28;19977;-62
2023/10/11 10:59:12;;;;;;;;;;;;;;;-147.89;100.00;60788.38;4224670;28;20472;-62
2023/10/11 11:01:13;;;;;;;;;;;;;;;-147.89;100.00;60788.38;4229518;28;19924;-62
2023/10/11 11:03:16;;;;;;;;;;;;;;;-147.89;100.00;60788.38;4229659;28;19959;-63
2023/10/11 11:05:25;;;;;;;;;;;;;;;-147.89;100.00;60788.38;4231370;27;19978;-65